sensor_id;sensor_type;location;lat;lon;timestamp;P1;durP1;ratioP1;P2;durP2;ratioP2
20846;SDS011;10584;50.854;12.902;2023-04-24T00:02:43;1.70;;;1.20;;
20846;SDS011;10584;50.854;12.902;2023-04-24T00:08:28;1.27;;;1.03;;
20846;SDS011;10584;50.854;12.902;2023-04-24T00:13:54;1.33;;;1.10;;
20846;SDS011;10584;50.854;12.902;2023-04-24T00:19:23;2.07;;;1.57;;
20846;SDS011;10584;50.854;12.902;2023-04-24T00:24:51;2.43;;;1.10;;
20846;SDS011;10584;50.854;12.902;2023-04-24T00:30:12;2.20;;;1.30;;
20846;SDS011;10584;50.854;12.902;2023-04-24T00:35:34;1.70;;;1.20;;
20846;SDS011;10584;50.854;12.902;2023-04-24T00:40:56;2.33;;;1.27;;
20846;SDS011;10584;50.854;12.902;2023-04-24T00:46:54;1.40;;;1.27;;
20846;SDS011;10584;50.854;12.902;2023-04-24T00:52:47;3.70;;;1.43;;
20846;SDS011;10584;50.854;12.902;2023-04-24T00:58:29;5.47;;;1.40;;
20846;SDS011;10584;50.854;12.902;2023-04-24T01:04:10;5.53;;;1.57;;
20846;SDS011;10584;50.854;12.902;2023-04-24T01:09:35;1.87;;;1.30;;
20846;SDS011;10584;50.854;12.902;2023-04-24T01:15:25;3.70;;;1.60;;
20846;SDS011;10584;50.854;12.902;2023-04-24T01:20:57;2.10;;;1.53;;
20846;SDS011;10584;50.854;12.902;2023-04-24T01:26:55;2.37;;;1.77;;
20846;SDS011;10584;50.854;12.902;2023-04-24T01:32:42;1.80;;;1.50;;
20846;SDS011;10584;50.854;12.902;2023-04-24T01:38:29;2.17;;;1.57;;
20846;SDS011;10584;50.854;12.902;2023-04-24T01:43:56;2.13;;;1.40;;
20846;SDS011;10584;50.854;12.902;2023-04-24T01:49:25;3.13;;;1.70;;
20846;SDS011;10584;50.854;12.902;2023-04-24T01:54:48;3.70;;;1.80;;
20846;SDS011;10584;50.854;12.902;2023-04-24T02:00:10;5.27;;;2.40;;
20846;SDS011;10584;50.854;12.902;2023-04-24T02:05:35;12.23;;;6.43;;
20846;SDS011;10584;50.854;12.902;2023-04-24T02:11:13;5.57;;;2.60;;
20846;SDS011;10584;50.854;12.902;2023-04-24T02:17:00;3.83;;;1.80;;
20846;SDS011;10584;50.854;12.902;2023-04-24T02:22:49;2.07;;;1.50;;
20846;SDS011;10584;50.854;12.902;2023-04-24T02:28:25;2.87;;;1.50;;
20846;SDS011;10584;50.854;12.902;2023-04-24T02:33:56;4.67;;;1.70;;
20846;SDS011;10584;50.854;12.902;2023-04-24T02:39:25;3.77;;;1.67;;
20846;SDS011;10584;50.854;12.902;2023-04-24T02:44:49;2.00;;;1.63;;
20846;SDS011;10584;50.854;12.902;2023-04-24T02:50:11;2.47;;;1.70;;
20846;SDS011;10584;50.854;12.902;2023-04-24T02:55:33;4.53;;;1.90;;
20846;SDS011;10584;50.854;12.902;2023-04-24T03:00:55;3.07;;;1.70;;
20846;SDS011;10584;50.854;12.902;2023-04-24T03:06:16;3.40;;;2.10;;
20846;SDS011;10584;50.854;12.902;2023-04-24T03:11:39;3.10;;;1.80;;
20846;SDS011;10584;50.854;12.902;2023-04-24T03:17:27;3.23;;;2.00;;
20846;SDS011;10584;50.854;12.902;2023-04-24T03:23:17;6.20;;;1.80;;
20846;SDS011;10584;50.854;12.902;2023-04-24T03:28:57;3.83;;;2.20;;
20846;SDS011;10584;50.854;12.902;2023-04-24T03:34:27;4.40;;;1.87;;
20846;SDS011;10584;50.854;12.902;2023-04-24T03:39:54;2.30;;;1.70;;
20846;SDS011;10584;50.854;12.902;2023-04-24T03:45:18;3.07;;;2.13;;
20846;SDS011;10584;50.854;12.902;2023-04-24T03:50:42;3.83;;;2.20;;
20846;SDS011;10584;50.854;12.902;2023-04-24T03:56:11;4.63;;;2.53;;
20846;SDS011;10584;50.854;12.902;2023-04-24T04:01:57;4.20;;;2.20;;
20846;SDS011;10584;50.854;12.902;2023-04-24T04:07:34;5.03;;;2.37;;
20846;SDS011;10584;50.854;12.902;2023-04-24T04:13:09;2.83;;;2.13;;
20846;SDS011;10584;50.854;12.902;2023-04-24T04:18:33;3.43;;;2.07;;
20846;SDS011;10584;50.854;12.902;2023-04-24T04:23:59;3.57;;;2.30;;
20846;SDS011;10584;50.854;12.902;2023-04-24T04:29:30;3.80;;;2.53;;
20846;SDS011;10584;50.854;12.902;2023-04-24T04:34:53;3.10;;;2.10;;
20846;SDS011;10584;50.854;12.902;2023-04-24T04:40:17;7.13;;;2.23;;
20846;SDS011;10584;50.854;12.902;2023-04-24T04:45:51;3.13;;;2.30;;
20846;SDS011;10584;50.854;12.902;2023-04-24T04:51:57;3.57;;;2.23;;
20846;SDS011;10584;50.854;12.902;2023-04-24T04:57:43;5.43;;;2.30;;
20846;SDS011;10584;50.854;12.902;2023-04-24T05:03:18;3.97;;;2.27;;
20846;SDS011;10584;50.854;12.902;2023-04-24T05:09:02;2.87;;;2.20;;
20846;SDS011;10584;50.854;12.902;2023-04-24T05:14:38;3.23;;;2.30;;
20846;SDS011;10584;50.854;12.902;2023-04-24T05:20:00;3.73;;;2.43;;
20846;SDS011;10584;50.854;12.902;2023-04-24T05:25:22;3.13;;;2.17;;
20846;SDS011;10584;50.854;12.902;2023-04-24T05:30:57;3.10;;;2.30;;
20846;SDS011;10584;50.854;12.902;2023-04-24T05:36:55;3.63;;;2.30;;
20846;SDS011;10584;50.854;12.902;2023-04-24T05:42:45;5.40;;;2.17;;
20846;SDS011;10584;50.854;12.902;2023-04-24T05:48:25;3.73;;;2.30;;
20846;SDS011;10584;50.854;12.902;2023-04-24T05:54:02;2.50;;;1.77;;
20846;SDS011;10584;50.854;12.902;2023-04-24T05:59:31;2.67;;;1.57;;
20846;SDS011;10584;50.854;12.902;2023-04-24T06:04:54;4.17;;;1.90;;
20846;SDS011;10584;50.854;12.902;2023-04-24T06:10:19;4.67;;;1.50;;
20846;SDS011;10584;50.854;12.902;2023-04-24T06:15:43;2.87;;;1.77;;
20846;SDS011;10584;50.854;12.902;2023-04-24T06:21:16;3.93;;;1.70;;
20846;SDS011;10584;50.854;12.902;2023-04-24T06:26:52;3.70;;;1.60;;
20846;SDS011;10584;50.854;12.902;2023-04-24T06:32:41;3.67;;;1.80;;
20846;SDS011;10584;50.854;12.902;2023-04-24T06:38:45;5.33;;;1.63;;
20846;SDS011;10584;50.854;12.902;2023-04-24T06:44:12;3.20;;;1.60;;
20846;SDS011;10584;50.854;12.902;2023-04-24T06:49:41;4.27;;;1.60;;
20846;SDS011;10584;50.854;12.902;2023-04-24T06:55:03;4.87;;;1.70;;
20846;SDS011;10584;50.854;12.902;2023-04-24T07:00:25;3.70;;;1.70;;
20846;SDS011;10584;50.854;12.902;2023-04-24T07:05:49;6.83;;;1.40;;
20846;SDS011;10584;50.854;12.902;2023-04-24T07:11:38;6.40;;;1.87;;
20846;SDS011;10584;50.854;12.902;2023-04-24T07:17:12;3.13;;;1.70;;
20846;SDS011;10584;50.854;12.902;2023-04-24T07:23:04;2.80;;;1.80;;
20846;SDS011;10584;50.854;12.902;2023-04-24T07:28:46;3.17;;;1.67;;
20846;SDS011;10584;50.854;12.902;2023-04-24T07:34:22;5.27;;;1.80;;
20846;SDS011;10584;50.854;12.902;2023-04-24T07:39:47;3.50;;;1.80;;
20846;SDS011;10584;50.854;12.902;2023-04-24T07:45:09;4.00;;;1.50;;
20846;SDS011;10584;50.854;12.902;2023-04-24T07:50:31;2.87;;;1.60;;
20846;SDS011;10584;50.854;12.902;2023-04-24T07:55:54;3.60;;;1.70;;
20846;SDS011;10584;50.854;12.902;2023-04-24T08:01:17;3.40;;;1.60;;
20846;SDS011;10584;50.854;12.902;2023-04-24T08:07:03;7.73;;;1.30;;
20846;SDS011;10584;50.854;12.902;2023-04-24T08:12:34;4.23;;;1.40;;
20846;SDS011;10584;50.854;12.902;2023-04-24T08:18:19;1.50;;;1.40;;
20846;SDS011;10584;50.854;12.902;2023-04-24T08:23:58;2.47;;;1.40;;
20846;SDS011;10584;50.854;12.902;2023-04-24T08:29:29;1.97;;;1.30;;
20846;SDS011;10584;50.854;12.902;2023-04-24T08:34:55;3.40;;;1.47;;
20846;SDS011;10584;50.854;12.902;2023-04-24T08:40:17;5.00;;;1.50;;
20846;SDS011;10584;50.854;12.902;2023-04-24T08:45:40;3.07;;;1.37;;
20846;SDS011;10584;50.854;12.902;2023-04-24T08:51:10;2.33;;;1.57;;
20846;SDS011;10584;50.854;12.902;2023-04-24T08:57:08;3.23;;;1.60;;
20846;SDS011;10584;50.854;12.902;2023-04-24T09:02:53;3.00;;;1.40;;
20846;SDS011;10584;50.854;12.902;2023-04-24T09:08:43;2.07;;;1.33;;
20846;SDS011;10584;50.854;12.902;2023-04-24T09:14:12;5.73;;;1.60;;
20846;SDS011;10584;50.854;12.902;2023-04-24T09:19:43;3.70;;;1.50;;
20846;SDS011;10584;50.854;12.902;2023-04-24T09:25:08;1.70;;;1.27;;
20846;SDS011;10584;50.854;12.902;2023-04-24T09:30:32;5.20;;;1.50;;
20846;SDS011;10584;50.854;12.902;2023-04-24T09:35:55;2.83;;;1.50;;
20846;SDS011;10584;50.854;12.902;2023-04-24T09:41:43;3.10;;;1.90;;
20846;SDS011;10584;50.854;12.902;2023-04-24T09:47:41;2.77;;;1.30;;
20846;SDS011;10584;50.854;12.902;2023-04-24T09:53:25;3.17;;;1.13;;
20846;SDS011;10584;50.854;12.902;2023-04-24T09:59:19;9.83;;;1.27;;
20846;SDS011;10584;50.854;12.902;2023-04-24T10:04:57;1.47;;;0.90;;
20846;SDS011;10584;50.854;12.902;2023-04-24T10:10:40;1.10;;;0.80;;
20846;SDS011;10584;50.854;12.902;2023-04-24T10:16:18;4.80;;;1.10;;
20846;SDS011;10584;50.854;12.902;2023-04-24T10:21:47;1.10;;;0.90;;
20846;SDS011;10584;50.854;12.902;2023-04-24T10:27:37;3.27;;;1.10;;
20846;SDS011;10584;50.854;12.902;2023-04-24T10:33:26;1.20;;;1.10;;
20846;SDS011;10584;50.854;12.902;2023-04-24T10:39:03;1.67;;;1.20;;
20846;SDS011;10584;50.854;12.902;2023-04-24T10:44:36;1.40;;;1.17;;
20846;SDS011;10584;50.854;12.902;2023-04-24T10:49:58;1.30;;;0.90;;
20846;SDS011;10584;50.854;12.902;2023-04-24T11:07:28;1.40;;;1.10;;
20846;SDS011;10584;50.854;12.902;2023-04-24T11:13:17;2.97;;;1.07;;
20846;SDS011;10584;50.854;12.902;2023-04-24T11:19:07;2.90;;;1.20;;
20846;SDS011;10584;50.854;12.902;2023-04-24T11:30:17;2.67;;;1.27;;
20846;SDS011;10584;50.854;12.902;2023-04-24T11:35:40;2.30;;;1.50;;
20846;SDS011;10584;50.854;12.902;2023-04-24T11:41:21;1.97;;;1.40;;
20846;SDS011;10584;50.854;12.902;2023-04-24T11:47:09;1.70;;;1.30;;
20846;SDS011;10584;50.854;12.902;2023-04-24T11:52:54;2.03;;;1.60;;
20846;SDS011;10584;50.854;12.902;2023-04-24T11:58:23;3.20;;;1.40;;
20846;SDS011;10584;50.854;12.902;2023-04-24T12:04:01;2.53;;;1.50;;
20846;SDS011;10584;50.854;12.902;2023-04-24T12:09:43;2.67;;;1.37;;
20846;SDS011;10584;50.854;12.902;2023-04-24T12:15:07;1.50;;;1.37;;
20846;SDS011;10584;50.854;12.902;2023-04-24T12:20:30;2.80;;;1.60;;
20846;SDS011;10584;50.854;12.902;2023-04-24T12:25:54;1.80;;;1.30;;
20846;SDS011;10584;50.854;12.902;2023-04-24T12:31:42;2.43;;;1.60;;
20846;SDS011;10584;50.854;12.902;2023-04-24T12:37:32;1.87;;;1.50;;
20846;SDS011;10584;50.854;12.902;2023-04-24T12:43:14;6.63;;;1.73;;
20846;SDS011;10584;50.854;12.902;2023-04-24T12:48:55;2.97;;;1.80;;
20846;SDS011;10584;50.854;12.902;2023-04-24T12:54:24;3.07;;;2.00;;
20846;SDS011;10584;50.854;12.902;2023-04-24T12:59:58;2.87;;;1.80;;
20846;SDS011;10584;50.854;12.902;2023-04-24T13:05:24;2.07;;;1.67;;
20846;SDS011;10584;50.854;12.902;2023-04-24T13:11:01;1.80;;;1.60;;
20846;SDS011;10584;50.854;12.902;2023-04-24T13:16:33;2.83;;;1.80;;
20846;SDS011;10584;50.854;12.902;2023-04-24T13:22:06;6.90;;;2.13;;
20846;SDS011;10584;50.854;12.902;2023-04-24T13:27:51;3.63;;;2.07;;
20846;SDS011;10584;50.854;12.902;2023-04-24T13:33:20;3.20;;;1.70;;
20846;SDS011;10584;50.854;12.902;2023-04-24T13:38:47;3.00;;;1.83;;
20846;SDS011;10584;50.854;12.902;2023-04-24T13:44:30;2.03;;;1.70;;
20846;SDS011;10584;50.854;12.902;2023-04-24T13:49:52;2.90;;;1.90;;
20846;SDS011;10584;50.854;12.902;2023-04-24T13:55:14;2.53;;;1.90;;
20846;SDS011;10584;50.854;12.902;2023-04-24T14:00:35;6.13;;;1.80;;
20846;SDS011;10584;50.854;12.902;2023-04-24T14:06:04;2.47;;;1.87;;
20846;SDS011;10584;50.854;12.902;2023-04-24T14:12:07;4.43;;;1.90;;
20846;SDS011;10584;50.854;12.902;2023-04-24T14:17:54;2.80;;;1.93;;
20846;SDS011;10584;50.854;12.902;2023-04-24T14:23:27;2.97;;;2.10;;
20846;SDS011;10584;50.854;12.902;2023-04-24T14:29:04;3.90;;;2.10;;
20846;SDS011;10584;50.854;12.902;2023-04-24T14:34:35;2.30;;;2.03;;
20846;SDS011;10584;50.854;12.902;2023-04-24T14:39:57;5.47;;;2.70;;
20846;SDS011;10584;50.854;12.902;2023-04-24T14:45:38;7.67;;;2.53;;
20846;SDS011;10584;50.854;12.902;2023-04-24T14:51:06;3.47;;;2.00;;
20846;SDS011;10584;50.854;12.902;2023-04-24T14:56:52;3.10;;;2.13;;
20846;SDS011;10584;50.854;12.902;2023-04-24T15:02:38;3.10;;;2.10;;
20846;SDS011;10584;50.854;12.902;2023-04-24T15:08:26;2.67;;;2.07;;
20846;SDS011;10584;50.854;12.902;2023-04-24T15:13:50;4.43;;;1.80;;
20846;SDS011;10584;50.854;12.902;2023-04-24T15:19:17;4.87;;;1.80;;
20846;SDS011;10584;50.854;12.902;2023-04-24T15:24:46;2.30;;;1.57;;
20846;SDS011;10584;50.854;12.902;2023-04-24T15:30:08;2.67;;;1.40;;
20846;SDS011;10584;50.854;12.902;2023-04-24T15:35:31;2.53;;;1.30;;
20846;SDS011;10584;50.854;12.902;2023-04-24T15:40:53;3.33;;;1.50;;
20846;SDS011;10584;50.854;12.902;2023-04-24T15:46:42;2.33;;;1.80;;
20846;SDS011;10584;50.854;12.902;2023-04-24T15:52:28;4.47;;;1.70;;
20846;SDS011;10584;50.854;12.902;2023-04-24T15:58:19;2.40;;;1.80;;
20846;SDS011;10584;50.854;12.902;2023-04-24T16:04:00;5.87;;;1.60;;
20846;SDS011;10584;50.854;12.902;2023-04-24T16:09:41;4.20;;;1.50;;
20846;SDS011;10584;50.854;12.902;2023-04-24T16:15:08;4.17;;;1.40;;
20846;SDS011;10584;50.854;12.902;2023-04-24T16:21:01;2.57;;;1.40;;
20846;SDS011;10584;50.854;12.902;2023-04-24T16:26:35;5.23;;;1.73;;
20846;SDS011;10584;50.854;12.902;2023-04-24T16:32:20;4.33;;;2.00;;
20846;SDS011;10584;50.854;12.902;2023-04-24T16:37:57;3.63;;;1.83;;
20846;SDS011;10584;50.854;12.902;2023-04-24T16:43:33;3.37;;;1.63;;
20846;SDS011;10584;50.854;12.902;2023-04-24T16:49:04;2.23;;;1.70;;
20846;SDS011;10584;50.854;12.902;2023-04-24T16:54:32;2.37;;;1.80;;
20846;SDS011;10584;50.854;12.902;2023-04-24T16:59:55;2.47;;;1.80;;
20846;SDS011;10584;50.854;12.902;2023-04-24T17:05:21;2.43;;;1.90;;
20846;SDS011;10584;50.854;12.902;2023-04-24T17:11:18;6.50;;;1.87;;
20846;SDS011;10584;50.854;12.902;2023-04-24T17:16:57;2.07;;;1.30;;
20846;SDS011;10584;50.854;12.902;2023-04-24T17:22:40;1.80;;;1.53;;
20846;SDS011;10584;50.854;12.902;2023-04-24T17:34:04;2.60;;;1.60;;
20846;SDS011;10584;50.854;12.902;2023-04-24T17:39:34;2.90;;;1.60;;
20846;SDS011;10584;50.854;12.902;2023-04-24T17:44:56;1.80;;;1.50;;
20846;SDS011;10584;50.854;12.902;2023-04-24T17:50:17;2.00;;;1.53;;
20846;SDS011;10584;50.854;12.902;2023-04-24T17:55:38;2.03;;;1.43;;
20846;SDS011;10584;50.854;12.902;2023-04-24T18:01:02;2.17;;;1.60;;
20846;SDS011;10584;50.854;12.902;2023-04-24T18:06:24;2.73;;;1.53;;
20846;SDS011;10584;50.854;12.902;2023-04-24T18:12:18;2.87;;;1.40;;
20846;SDS011;10584;50.854;12.902;2023-04-24T18:18:05;1.90;;;1.50;;
20846;SDS011;10584;50.854;12.902;2023-04-24T18:23:37;2.17;;;1.70;;
20846;SDS011;10584;50.854;12.902;2023-04-24T18:29:06;2.10;;;1.57;;
20846;SDS011;10584;50.854;12.902;2023-04-24T18:34:33;1.90;;;1.50;;
20846;SDS011;10584;50.854;12.902;2023-04-24T18:39:55;1.77;;;1.40;;
20846;SDS011;10584;50.854;12.902;2023-04-24T18:45:17;1.60;;;1.40;;
20846;SDS011;10584;50.854;12.902;2023-04-24T18:50:38;4.60;;;1.77;;
20846;SDS011;10584;50.854;12.902;2023-04-24T18:56:04;2.70;;;1.70;;
20846;SDS011;10584;50.854;12.902;2023-04-24T19:01:47;2.77;;;1.50;;
20846;SDS011;10584;50.854;12.902;2023-04-24T19:07:18;1.70;;;1.40;;
20846;SDS011;10584;50.854;12.902;2023-04-24T19:13:07;1.60;;;1.30;;
20846;SDS011;10584;50.854;12.902;2023-04-24T19:18:54;2.20;;;1.50;;
20846;SDS011;10584;50.854;12.902;2023-04-24T19:24:26;1.63;;;1.30;;
20846;SDS011;10584;50.854;12.902;2023-04-24T19:29:48;2.57;;;1.67;;
20846;SDS011;10584;50.854;12.902;2023-04-24T19:35:11;2.60;;;1.80;;
20846;SDS011;10584;50.854;12.902;2023-04-24T19:40:32;3.43;;;2.00;;
20846;SDS011;10584;50.854;12.902;2023-04-24T19:45:54;3.50;;;1.90;;
20846;SDS011;10584;50.854;12.902;2023-04-24T19:51:45;5.80;;;2.43;;
20846;SDS011;10584;50.854;12.902;2023-04-24T19:57:38;2.80;;;1.87;;
20846;SDS011;10584;50.854;12.902;2023-04-24T20:03:31;3.57;;;2.20;;
20846;SDS011;10584;50.854;12.902;2023-04-24T20:09:06;3.40;;;1.87;;
20846;SDS011;10584;50.854;12.902;2023-04-24T20:14:28;2.27;;;1.80;;
20846;SDS011;10584;50.854;12.902;2023-04-24T20:19:51;2.77;;;1.83;;
20846;SDS011;10584;50.854;12.902;2023-04-24T20:25:13;2.73;;;1.80;;
20846;SDS011;10584;50.854;12.902;2023-04-24T20:30:35;2.63;;;1.70;;
20846;SDS011;10584;50.854;12.902;2023-04-24T20:35:59;2.57;;;1.70;;
20846;SDS011;10584;50.854;12.902;2023-04-24T20:41:49;3.03;;;2.07;;
20846;SDS011;10584;50.854;12.902;2023-04-24T20:47:31;3.30;;;2.00;;
20846;SDS011;10584;50.854;12.902;2023-04-24T20:53:30;4.23;;;2.37;;
20846;SDS011;10584;50.854;12.902;2023-04-24T20:59:03;3.50;;;2.17;;
20846;SDS011;10584;50.854;12.902;2023-04-24T21:04:37;3.07;;;2.40;;
20846;SDS011;10584;50.854;12.902;2023-04-24T21:10:22;5.23;;;2.50;;
20846;SDS011;10584;50.854;12.902;2023-04-24T21:15:49;5.27;;;2.73;;
20846;SDS011;10584;50.854;12.902;2023-04-24T21:21:20;4.40;;;2.70;;
20846;SDS011;10584;50.854;12.902;2023-04-24T21:26:52;5.03;;;3.10;;
20846;SDS011;10584;50.854;12.902;2023-04-24T21:32:41;5.37;;;2.70;;
20846;SDS011;10584;50.854;12.902;2023-04-24T21:38:25;4.87;;;2.80;;
20846;SDS011;10584;50.854;12.902;2023-04-24T21:44:03;4.47;;;2.90;;
20846;SDS011;10584;50.854;12.902;2023-04-24T21:49:33;7.80;;;3.20;;
20846;SDS011;10584;50.854;12.902;2023-04-24T21:54:58;6.27;;;3.63;;
20846;SDS011;10584;50.854;12.902;2023-04-24T22:00:20;4.77;;;3.30;;
20846;SDS011;10584;50.854;12.902;2023-04-24T22:05:47;5.47;;;3.50;;
20846;SDS011;10584;50.854;12.902;2023-04-24T22:11:26;5.13;;;3.20;;
20846;SDS011;10584;50.854;12.902;2023-04-24T22:17:18;7.63;;;4.03;;
20846;SDS011;10584;50.854;12.902;2023-04-24T22:22:45;7.50;;;4.03;;
20846;SDS011;10584;50.854;12.902;2023-04-24T22:28:30;8.03;;;4.00;;
20846;SDS011;10584;50.854;12.902;2023-04-24T22:34:11;8.23;;;4.50;;
20846;SDS011;10584;50.854;12.902;2023-04-24T22:39:33;7.80;;;4.27;;
20846;SDS011;10584;50.854;12.902;2023-04-24T22:44:54;9.10;;;4.57;;
20846;SDS011;10584;50.854;12.902;2023-04-24T22:50:16;8.80;;;4.90;;
20846;SDS011;10584;50.854;12.902;2023-04-24T22:55:39;8.17;;;5.17;;
20846;SDS011;10584;50.854;12.902;2023-04-24T23:01:01;9.50;;;5.03;;
20846;SDS011;10584;50.854;12.902;2023-04-24T23:06:27;9.50;;;4.70;;
20846;SDS011;10584;50.854;12.902;2023-04-24T23:12:16;9.20;;;5.37;;
20846;SDS011;10584;50.854;12.902;2023-04-24T23:17:55;9.07;;;4.70;;
20846;SDS011;10584;50.854;12.902;2023-04-24T23:23:26;9.13;;;4.70;;
20846;SDS011;10584;50.854;12.902;2023-04-24T23:29:08;8.37;;;4.53;;
20846;SDS011;10584;50.854;12.902;2023-04-24T23:34:36;8.30;;;5.03;;
20846;SDS011;10584;50.854;12.902;2023-04-24T23:39:58;8.80;;;5.17;;
20846;SDS011;10584;50.854;12.902;2023-04-24T23:45:19;11.47;;;5.50;;
20846;SDS011;10584;50.854;12.902;2023-04-24T23:50:41;11.13;;;5.63;;
20846;SDS011;10584;50.854;12.902;2023-04-24T23:56:12;13.13;;;5.47;;
